sensor_id;sensor_type;location;lat;lon;timestamp;pressure;altitude;pressure_sealevel;temperature;humidity
57048;BME280;42934;54.294;18.598;2022-11-02T00:01:58;100907.59;;;13.02;92.04
57048;BME280;42934;54.294;18.598;2022-11-02T00:04:27;100911.03;;;13.04;92.13
57048;BME280;42934;54.294;18.598;2022-11-02T00:06:56;100914.78;;;12.99;92.17
57048;BME280;42934;54.294;18.598;2022-11-02T00:09:26;100920.84;;;13.01;92.03
57048;BME280;42934;54.294;18.598;2022-11-02T00:11:55;100914.84;;;12.97;91.83
57048;BME280;42934;54.294;18.598;2022-11-02T00:14:24;100914.72;;;13.00;92.11
57048;BME280;42934;54.294;18.598;2022-11-02T00:16:54;100913.91;;;12.98;91.82
57048;BME280;42934;54.294;18.598;2022-11-02T00:19:24;100918.44;;;12.94;91.97
57048;BME280;42934;54.294;18.598;2022-11-02T00:21:53;100923.84;;;12.91;91.91
57048;BME280;42934;54.294;18.598;2022-11-02T00:24:25;100928.19;;;12.92;92.10
57048;BME280;42934;54.294;18.598;2022-11-02T00:26:54;100923.03;;;12.89;91.98
57048;BME280;42934;54.294;18.598;2022-11-02T00:29:24;100920.38;;;12.89;91.85
57048;BME280;42934;54.294;18.598;2022-11-02T00:31:59;100915.16;;;12.88;91.87
57048;BME280;42934;54.294;18.598;2022-11-02T00:34:30;100918.69;;;12.88;92.02
57048;BME280;42934;54.294;18.598;2022-11-02T00:36:59;100917.03;;;12.86;92.14
57048;BME280;42934;54.294;18.598;2022-11-02T00:39:28;100913.63;;;12.82;91.83
57048;BME280;42934;54.294;18.598;2022-11-02T00:41:57;100916.25;;;12.82;91.97
57048;BME280;42934;54.294;18.598;2022-11-02T00:44:27;100921.53;;;12.82;92.05
57048;BME280;42934;54.294;18.598;2022-11-02T00:46:56;100924.97;;;12.84;91.89
57048;BME280;42934;54.294;18.598;2022-11-02T00:49:25;100929.50;;;12.81;91.78
57048;BME280;42934;54.294;18.598;2022-11-02T00:51:56;100938.16;;;12.84;91.94
57048;BME280;42934;54.294;18.598;2022-11-02T00:54:28;100931.16;;;12.83;91.91
57048;BME280;42934;54.294;18.598;2022-11-02T00:56:57;100931.22;;;12.82;91.93
57048;BME280;42934;54.294;18.598;2022-11-02T00:59:31;100934.66;;;12.84;91.72
57048;BME280;42934;54.294;18.598;2022-11-02T01:02:01;100937.41;;;12.81;91.53
57048;BME280;42934;54.294;18.598;2022-11-02T01:04:30;100940.91;;;12.81;91.67
57048;BME280;42934;54.294;18.598;2022-11-02T01:07:01;100941.75;;;12.82;91.92
57048;BME280;42934;54.294;18.598;2022-11-02T01:09:30;100947.88;;;12.82;91.97
57048;BME280;42934;54.294;18.598;2022-11-02T01:11:59;100945.25;;;12.82;91.79
57048;BME280;42934;54.294;18.598;2022-11-02T01:14:29;100947.03;;;12.82;91.84
57048;BME280;42934;54.294;18.598;2022-11-02T01:16:58;100941.88;;;12.79;91.55
57048;BME280;42934;54.294;18.598;2022-11-02T01:19:28;100945.44;;;12.78;91.69
57048;BME280;42934;54.294;18.598;2022-11-02T01:21:57;100945.47;;;12.76;91.47
57048;BME280;42934;54.294;18.598;2022-11-02T01:24:29;100949.88;;;12.76;91.50
57048;BME280;42934;54.294;18.598;2022-11-02T01:26:58;100941.28;;;12.70;91.49
57048;BME280;42934;54.294;18.598;2022-11-02T01:29:27;100938.72;;;12.69;91.51
57048;BME280;42934;54.294;18.598;2022-11-02T01:31:56;100939.66;;;12.68;91.55
57048;BME280;42934;54.294;18.598;2022-11-02T01:34:26;100938.88;;;12.64;91.14
57048;BME280;42934;54.294;18.598;2022-11-02T01:36:55;100939.91;;;12.60;91.38
57048;BME280;42934;54.294;18.598;2022-11-02T01:39:24;100945.22;;;12.59;91.30
57048;BME280;42934;54.294;18.598;2022-11-02T01:41:54;100940.06;;;12.56;91.42
57048;BME280;42934;54.294;18.598;2022-11-02T01:44:29;100937.44;;;12.56;91.71
57048;BME280;42934;54.294;18.598;2022-11-02T01:47:01;100945.41;;;12.54;91.39
57048;BME280;42934;54.294;18.598;2022-11-02T01:49:33;100949.00;;;12.52;91.29
57048;BME280;42934;54.294;18.598;2022-11-02T01:52:06;100937.72;;;12.48;91.25
57048;BME280;42934;54.294;18.598;2022-11-02T01:54:40;100931.63;;;12.47;91.59
57048;BME280;42934;54.294;18.598;2022-11-02T01:57:14;100930.72;;;12.47;91.29
57048;BME280;42934;54.294;18.598;2022-11-02T01:59:48;100934.34;;;12.44;91.57
57048;BME280;42934;54.294;18.598;2022-11-02T02:02:23;100932.50;;;12.46;91.60
57048;BME280;42934;54.294;18.598;2022-11-02T02:04:57;100926.38;;;12.46;91.42
57048;BME280;42934;54.294;18.598;2022-11-02T02:07:30;100929.00;;;12.46;91.51
57048;BME280;42934;54.294;18.598;2022-11-02T02:10:00;100940.47;;;12.45;90.88
57048;BME280;42934;54.294;18.598;2022-11-02T02:12:31;100935.34;;;12.40;90.96
57048;BME280;42934;54.294;18.598;2022-11-02T02:15:01;100937.25;;;12.37;90.55
57048;BME280;42934;54.294;18.598;2022-11-02T02:17:36;100936.63;;;12.30;90.65
57048;BME280;42934;54.294;18.598;2022-11-02T02:20:14;100928.94;;;12.24;90.41
57048;BME280;42934;54.294;18.598;2022-11-02T02:23:09;100933.53;;;12.17;90.56
57048;BME280;42934;54.294;18.598;2022-11-02T02:25:59;100937.34;;;12.09;90.25
57048;BME280;42934;54.294;18.598;2022-11-02T02:28:35;100942.81;;;12.02;90.90
57048;BME280;42934;54.294;18.598;2022-11-02T02:31:15;100942.03;;;12.00;90.76
57048;BME280;42934;54.294;18.598;2022-11-02T02:33:49;100934.16;;;11.99;90.32
57048;BME280;42934;54.294;18.598;2022-11-02T02:36:25;100936.16;;;11.92;90.04
57048;BME280;42934;54.294;18.598;2022-11-02T02:39:00;100935.41;;;11.89;89.89
57048;BME280;42934;54.294;18.598;2022-11-02T02:41:40;100940.94;;;11.79;90.09
57048;BME280;42934;54.294;18.598;2022-11-02T02:44:15;100940.34;;;11.71;89.85
57048;BME280;42934;54.294;18.598;2022-11-02T02:46:49;100940.38;;;11.70;89.90
57048;BME280;42934;54.294;18.598;2022-11-02T02:49:27;100948.44;;;11.65;90.18
57048;BME280;42934;54.294;18.598;2022-11-02T02:52:00;100952.13;;;11.59;89.66
57048;BME280;42934;54.294;18.598;2022-11-02T02:54:33;100952.25;;;11.55;89.79
57048;BME280;42934;54.294;18.598;2022-11-02T02:57:08;100943.53;;;11.53;89.76
57048;BME280;42934;54.294;18.598;2022-11-02T02:59:41;100950.72;;;11.48;89.38
57048;BME280;42934;54.294;18.598;2022-11-02T03:02:16;100950.81;;;11.45;89.72
57048;BME280;42934;54.294;18.598;2022-11-02T03:04:48;100957.91;;;11.43;89.80
57048;BME280;42934;54.294;18.598;2022-11-02T03:07:22;100949.19;;;11.41;89.47
57048;BME280;42934;54.294;18.598;2022-11-02T03:10:06;100952.72;;;11.40;89.59
57048;BME280;42934;54.294;18.598;2022-11-02T03:12:44;100958.03;;;11.38;89.31
57048;BME280;42934;54.294;18.598;2022-11-02T03:15:25;100956.38;;;11.35;89.22
57048;BME280;42934;54.294;18.598;2022-11-02T03:18:05;100964.28;;;11.34;89.10
57048;BME280;42934;54.294;18.598;2022-11-02T03:20:50;100961.72;;;11.32;89.05
57048;BME280;42934;54.294;18.598;2022-11-02T03:23:25;100963.66;;;11.26;88.85
57048;BME280;42934;54.294;18.598;2022-11-02T03:26:01;100968.22;;;11.21;89.12
57048;BME280;42934;54.294;18.598;2022-11-02T03:28:52;100968.97;;;11.24;89.59
57048;BME280;42934;54.294;18.598;2022-11-02T03:31:33;100970.69;;;11.25;88.97
57048;BME280;42934;54.294;18.598;2022-11-02T03:34:14;100977.81;;;11.22;89.24
57048;BME280;42934;54.294;18.598;2022-11-02T03:36:47;100970.78;;;11.22;89.07
57048;BME280;42934;54.294;18.598;2022-11-02T03:39:23;100983.19;;;11.17;89.25
57048;BME280;42934;54.294;18.598;2022-11-02T03:41:57;100988.50;;;11.16;89.46
57048;BME280;42934;54.294;18.598;2022-11-02T03:44:32;100986.88;;;11.11;89.62
57048;BME280;42934;54.294;18.598;2022-11-02T03:47:06;100986.84;;;11.13;90.17
57048;BME280;42934;54.294;18.598;2022-11-02T03:49:39;100986.84;;;11.13;89.93
57048;BME280;42934;54.294;18.598;2022-11-02T03:52:14;100983.25;;;11.16;90.25
57048;BME280;42934;54.294;18.598;2022-11-02T03:54:48;100988.38;;;11.20;90.03
57048;BME280;42934;54.294;18.598;2022-11-02T03:57:23;100994.63;;;11.16;90.38
57048;BME280;42934;54.294;18.598;2022-11-02T04:00:06;100995.47;;;11.17;89.96
57048;BME280;42934;54.294;18.598;2022-11-02T04:02:45;100991.00;;;11.20;90.26
57048;BME280;42934;54.294;18.598;2022-11-02T04:05:16;100997.06;;;11.22;89.71
57048;BME280;42934;54.294;18.598;2022-11-02T04:07:49;100994.53;;;11.19;89.46
57048;BME280;42934;54.294;18.598;2022-11-02T04:10:37;101003.38;;;11.17;89.42
57048;BME280;42934;54.294;18.598;2022-11-02T04:13:26;100998.19;;;11.13;89.54
57048;BME280;42934;54.294;18.598;2022-11-02T04:16:13;101000.91;;;11.12;89.62
57048;BME280;42934;54.294;18.598;2022-11-02T04:18:44;100999.06;;;11.14;89.92
57048;BME280;42934;54.294;18.598;2022-11-02T04:21:31;100995.75;;;11.07;89.75
57048;BME280;42934;54.294;18.598;2022-11-02T04:24:02;100997.47;;;11.08;90.01
57048;BME280;42934;54.294;18.598;2022-11-02T04:26:49;100993.97;;;11.09;90.11
57048;BME280;42934;54.294;18.598;2022-11-02T04:29:18;100986.88;;;11.11;90.17
57048;BME280;42934;54.294;18.598;2022-11-02T04:31:48;100988.53;;;11.14;90.02
57048;BME280;42934;54.294;18.598;2022-11-02T04:34:19;100982.41;;;11.15;90.16
57048;BME280;42934;54.294;18.598;2022-11-02T04:36:47;100980.63;;;11.16;89.73
57048;BME280;42934;54.294;18.598;2022-11-02T04:39:17;100985.81;;;11.17;89.64
57048;BME280;42934;54.294;18.598;2022-11-02T04:41:45;100981.50;;;11.16;89.50
57048;BME280;42934;54.294;18.598;2022-11-02T04:44:28;100979.81;;;11.13;89.40
57048;BME280;42934;54.294;18.598;2022-11-02T04:47:04;100975.56;;;11.09;89.14
57048;BME280;42934;54.294;18.598;2022-11-02T04:49:36;100980.84;;;11.08;89.38
57048;BME280;42934;54.294;18.598;2022-11-02T04:52:09;100980.09;;;11.04;89.71
57048;BME280;42934;54.294;18.598;2022-11-02T04:54:44;100976.78;;;10.98;89.33
57048;BME280;42934;54.294;18.598;2022-11-02T04:57:13;100975.97;;;10.96;89.58
57048;BME280;42934;54.294;18.598;2022-11-02T04:59:43;100976.91;;;10.93;89.58
57048;BME280;42934;54.294;18.598;2022-11-02T05:02:13;100965.75;;;10.85;89.56
57048;BME280;42934;54.294;18.598;2022-11-02T05:04:44;100966.69;;;10.82;89.68
57048;BME280;42934;54.294;18.598;2022-11-02T05:07:15;100966.66;;;10.84;90.54
57048;BME280;42934;54.294;18.598;2022-11-02T05:09:44;100971.81;;;10.87;90.28
57048;BME280;42934;54.294;18.598;2022-11-02T05:12:16;100970.91;;;10.88;89.73
57048;BME280;42934;54.294;18.598;2022-11-02T05:14:46;100971.00;;;10.85;89.72
57048;BME280;42934;54.294;18.598;2022-11-02T05:17:15;100970.38;;;10.77;89.89
57048;BME280;42934;54.294;18.598;2022-11-02T05:19:46;100973.78;;;10.80;89.79
57048;BME280;42934;54.294;18.598;2022-11-02T05:22:15;100986.00;;;10.81;90.07
57048;BME280;42934;54.294;18.598;2022-11-02T05:24:44;100986.13;;;10.77;90.19
57048;BME280;42934;54.294;18.598;2022-11-02T05:27:14;100992.38;;;10.73;90.25
57048;BME280;42934;54.294;18.598;2022-11-02T05:29:45;100999.41;;;10.71;90.54
57048;BME280;42934;54.294;18.598;2022-11-02T05:32:14;101000.31;;;10.71;90.18
57048;BME280;42934;54.294;18.598;2022-11-02T05:34:45;101002.19;;;10.66;90.57
57048;BME280;42934;54.294;18.598;2022-11-02T05:37:14;101003.91;;;10.67;90.71
57048;BME280;42934;54.294;18.598;2022-11-02T05:39:44;101010.06;;;10.66;90.69
57048;BME280;42934;54.294;18.598;2022-11-02T05:42:24;101016.31;;;10.62;90.93
57048;BME280;42934;54.294;18.598;2022-11-02T05:44:53;101012.00;;;10.59;91.13
57048;BME280;42934;54.294;18.598;2022-11-02T05:47:22;101013.88;;;10.54;91.41
57048;BME280;42934;54.294;18.598;2022-11-02T05:49:53;101004.22;;;10.55;91.14
57048;BME280;42934;54.294;18.598;2022-11-02T05:52:22;101006.91;;;10.53;91.41
57048;BME280;42934;54.294;18.598;2022-11-02T05:54:51;101005.16;;;10.54;91.23
57048;BME280;42934;54.294;18.598;2022-11-02T05:57:20;100999.91;;;10.54;90.94
57048;BME280;42934;54.294;18.598;2022-11-02T05:59:49;101008.97;;;10.40;91.55
57048;BME280;42934;54.294;18.598;2022-11-02T06:02:18;101003.53;;;10.48;91.53
57048;BME280;42934;54.294;18.598;2022-11-02T06:04:53;101007.94;;;10.48;91.32
57048;BME280;42934;54.294;18.598;2022-11-02T06:07:22;101015.97;;;10.41;91.50
57048;BME280;42934;54.294;18.598;2022-11-02T06:09:51;100999.31;;;10.42;91.83
57048;BME280;42934;54.294;18.598;2022-11-02T06:12:21;101015.81;;;10.48;91.72
57048;BME280;42934;54.294;18.598;2022-11-02T06:14:50;101014.97;;;10.47;91.24
57048;BME280;42934;54.294;18.598;2022-11-02T06:17:19;101008.75;;;10.50;91.30
57048;BME280;42934;54.294;18.598;2022-11-02T06:19:48;101013.91;;;10.53;91.33
57048;BME280;42934;54.294;18.598;2022-11-02T06:22:18;101010.47;;;10.51;91.68
57048;BME280;42934;54.294;18.598;2022-11-02T06:24:48;101006.84;;;10.55;91.08
57048;BME280;42934;54.294;18.598;2022-11-02T06:27:17;101012.03;;;10.58;91.23
57048;BME280;42934;54.294;18.598;2022-11-02T06:29:47;101011.09;;;10.60;91.17
57048;BME280;42934;54.294;18.598;2022-11-02T06:32:16;101003.22;;;10.60;91.29
57048;BME280;42934;54.294;18.598;2022-11-02T06:34:45;101011.06;;;10.62;91.37
57048;BME280;42934;54.294;18.598;2022-11-02T06:37:15;101013.69;;;10.62;91.14
57048;BME280;42934;54.294;18.598;2022-11-02T06:39:45;101009.22;;;10.64;91.05
57048;BME280;42934;54.294;18.598;2022-11-02T06:42:14;101010.91;;;10.66;90.85
57048;BME280;42934;54.294;18.598;2022-11-02T06:44:43;101008.28;;;10.66;91.15
57048;BME280;42934;54.294;18.598;2022-11-02T06:47:13;101008.47;;;10.60;91.30
57048;BME280;42934;54.294;18.598;2022-11-02T06:49:42;101008.28;;;10.66;91.15
57048;BME280;42934;54.294;18.598;2022-11-02T06:52:11;101000.41;;;10.66;91.35
57048;BME280;42934;54.294;18.598;2022-11-02T06:54:40;100997.84;;;10.65;92.10
57048;BME280;42934;54.294;18.598;2022-11-02T06:57:10;101001.25;;;10.68;91.93
57048;BME280;42934;54.294;18.598;2022-11-02T06:59:39;100990.66;;;10.72;92.30
57048;BME280;42934;54.294;18.598;2022-11-02T07:02:09;101000.84;;;10.82;91.79
57048;BME280;42934;54.294;18.598;2022-11-02T07:04:38;100999.22;;;10.78;92.66
57048;BME280;42934;54.294;18.598;2022-11-02T07:07:07;101005.22;;;10.82;92.63
57048;BME280;42934;54.294;18.598;2022-11-02T07:09:36;101001.63;;;10.86;92.96
57048;BME280;42934;54.294;18.598;2022-11-02T07:12:06;100994.34;;;10.96;92.47
57048;BME280;42934;54.294;18.598;2022-11-02T07:14:36;100994.16;;;11.02;92.73
57048;BME280;42934;54.294;18.598;2022-11-02T07:17:06;101001.00;;;11.07;92.75
57048;BME280;42934;54.294;18.598;2022-11-02T07:19:35;100999.06;;;11.14;92.33
57048;BME280;42934;54.294;18.598;2022-11-02T07:22:04;101004.41;;;11.11;92.64
57048;BME280;42934;54.294;18.598;2022-11-02T07:24:34;101002.59;;;11.13;92.75
57048;BME280;42934;54.294;18.598;2022-11-02T07:27:03;101010.44;;;11.14;92.44
57048;BME280;42934;54.294;18.598;2022-11-02T07:29:32;101001.50;;;11.20;92.93
57048;BME280;42934;54.294;18.598;2022-11-02T07:32:03;101010.97;;;11.26;92.37
57048;BME280;42934;54.294;18.598;2022-11-02T07:34:34;101010.84;;;11.30;92.76
57048;BME280;42934;54.294;18.598;2022-11-02T07:37:03;101017.06;;;11.28;92.54
57048;BME280;42934;54.294;18.598;2022-11-02T07:39:32;101012.38;;;11.37;92.63
57048;BME280;42934;54.294;18.598;2022-11-02T07:42:01;101009.75;;;11.37;92.56
57048;BME280;42934;54.294;18.598;2022-11-02T07:44:35;101017.44;;;11.44;92.49
57048;BME280;42934;54.294;18.598;2022-11-02T07:47:06;101015.44;;;11.52;91.86
57048;BME280;42934;54.294;18.598;2022-11-02T07:49:35;101012.69;;;11.56;92.00
57048;BME280;42934;54.294;18.598;2022-11-02T07:52:04;101006.47;;;11.59;91.71
57048;BME280;42934;54.294;18.598;2022-11-02T07:54:33;101004.44;;;11.67;91.81
57048;BME280;42934;54.294;18.598;2022-11-02T07:57:07;101003.47;;;11.71;91.43
57048;BME280;42934;54.294;18.598;2022-11-02T07:59:36;101004.13;;;11.78;91.43
57048;BME280;42934;54.294;18.598;2022-11-02T08:02:09;101017.94;;;11.86;91.51
57048;BME280;42934;54.294;18.598;2022-11-02T08:04:40;101009.78;;;11.94;90.98
57048;BME280;42934;54.294;18.598;2022-11-02T08:07:12;101005.13;;;12.02;90.85
57048;BME280;42934;54.294;18.598;2022-11-02T08:09:41;101010.16;;;12.10;90.94
57048;BME280;42934;54.294;18.598;2022-11-02T08:12:11;101009.19;;;12.12;90.37
57048;BME280;42934;54.294;18.598;2022-11-02T08:14:40;101009.28;;;12.09;90.61
57048;BME280;42934;54.294;18.598;2022-11-02T08:17:11;101016.13;;;12.15;90.71
57048;BME280;42934;54.294;18.598;2022-11-02T08:19:40;101012.22;;;12.26;90.58
57048;BME280;42934;54.294;18.598;2022-11-02T08:22:09;101019.03;;;12.32;89.89
57048;BME280;42934;54.294;18.598;2022-11-02T08:24:38;101014.78;;;12.28;90.03
57048;BME280;42934;54.294;18.598;2022-11-02T08:27:08;101013.66;;;12.35;90.08
57048;BME280;42934;54.294;18.598;2022-11-02T08:29:37;101024.78;;;12.43;90.11
57048;BME280;42934;54.294;18.598;2022-11-02T08:32:06;101027.31;;;12.46;89.87
57048;BME280;42934;54.294;18.598;2022-11-02T08:34:36;101014.81;;;12.53;89.65
57048;BME280;42934;54.294;18.598;2022-11-02T08:37:07;101018.94;;;12.60;89.50
57048;BME280;42934;54.294;18.598;2022-11-02T08:39:36;101006.63;;;12.61;89.61
57048;BME280;42934;54.294;18.598;2022-11-02T08:42:05;101014.19;;;12.70;89.56
57048;BME280;42934;54.294;18.598;2022-11-02T08:44:35;101011.78;;;12.64;88.51
57048;BME280;42934;54.294;18.598;2022-11-02T08:47:09;101005.44;;;12.69;88.44
57048;BME280;42934;54.294;18.598;2022-11-02T08:49:40;101005.78;;;12.85;88.64
57048;BME280;42934;54.294;18.598;2022-11-02T08:52:09;101014.22;;;12.93;88.62
57048;BME280;42934;54.294;18.598;2022-11-02T08:54:38;101006.97;;;13.00;88.49
57048;BME280;42934;54.294;18.598;2022-11-02T08:57:07;101010.34;;;13.04;88.05
57048;BME280;42934;54.294;18.598;2022-11-02T08:59:37;101001.25;;;13.12;88.18
57048;BME280;42934;54.294;18.598;2022-11-02T09:02:07;101003.56;;;13.20;88.07
57048;BME280;42934;54.294;18.598;2022-11-02T09:04:38;100994.50;;;13.29;88.30
57048;BME280;42934;54.294;18.598;2022-11-02T09:07:07;101004.88;;;13.33;88.06
57048;BME280;42934;54.294;18.598;2022-11-02T09:09:36;100997.53;;;13.42;87.73
57048;BME280;42934;54.294;18.598;2022-11-02T09:12:06;100998.19;;;13.47;87.68
57048;BME280;42934;54.294;18.598;2022-11-02T09:14:35;100997.16;;;13.51;87.27
57048;BME280;42934;54.294;18.598;2022-11-02T09:17:04;101001.34;;;13.56;87.19
57048;BME280;42934;54.294;18.598;2022-11-02T09:19:34;100999.44;;;13.60;86.95
57048;BME280;42934;54.294;18.598;2022-11-02T09:22:04;101000.03;;;13.67;86.91
57048;BME280;42934;54.294;18.598;2022-11-02T09:24:34;101002.41;;;13.74;86.67
57048;BME280;42934;54.294;18.598;2022-11-02T09:27:03;100997.72;;;13.81;86.31
57048;BME280;42934;54.294;18.598;2022-11-02T09:29:32;100994.91;;;13.85;86.17
57048;BME280;42934;54.294;18.598;2022-11-02T09:32:01;100997.22;;;13.93;85.61
57048;BME280;42934;54.294;18.598;2022-11-02T09:34:31;100991.69;;;13.99;85.24
57048;BME280;42934;54.294;18.598;2022-11-02T09:36:59;100994.19;;;14.02;84.14
57048;BME280;42934;54.294;18.598;2022-11-02T09:39:30;100993.66;;;14.15;84.68
57048;BME280;42934;54.294;18.598;2022-11-02T09:42:05;100992.38;;;14.25;84.14
57048;BME280;42934;54.294;18.598;2022-11-02T09:44:46;101001.09;;;14.27;83.65
57048;BME280;42934;54.294;18.598;2022-11-02T09:47:18;100997.34;;;14.32;83.46
57048;BME280;42934;54.294;18.598;2022-11-02T09:50:15;100992.56;;;14.41;83.29
57048;BME280;42934;54.294;18.598;2022-11-02T09:52:48;100984.38;;;14.47;82.88
57048;BME280;42934;54.294;18.598;2022-11-02T09:55:25;100994.94;;;14.47;81.85
57048;BME280;42934;54.294;18.598;2022-11-02T09:58:00;100991.97;;;14.56;82.15
57048;BME280;42934;54.294;18.598;2022-11-02T10:00:36;100997.28;;;14.54;80.49
57048;BME280;42934;54.294;18.598;2022-11-02T10:03:15;100990.88;;;14.60;80.85
57048;BME280;42934;54.294;18.598;2022-11-02T10:05:52;100996.97;;;14.62;80.24
57048;BME280;42934;54.294;18.598;2022-11-02T10:08:36;100996.88;;;14.64;79.55
57048;BME280;42934;54.294;18.598;2022-11-02T10:11:23;100988.78;;;14.68;79.50
57048;BME280;42934;54.294;18.598;2022-11-02T10:14:03;100978.91;;;14.72;79.40
57048;BME280;42934;54.294;18.598;2022-11-02T10:16:37;100980.47;;;14.76;79.47
57048;BME280;42934;54.294;18.598;2022-11-02T10:19:12;100983.06;;;14.77;79.24
57048;BME280;42934;54.294;18.598;2022-11-02T10:21:44;100970.66;;;14.80;78.89
57048;BME280;42934;54.294;18.598;2022-11-02T10:24:23;100978.50;;;14.81;78.05
57048;BME280;42934;54.294;18.598;2022-11-02T10:26:58;100978.22;;;14.87;78.25
57048;BME280;42934;54.294;18.598;2022-11-02T10:29:38;100979.81;;;14.91;77.81
57048;BME280;42934;54.294;18.598;2022-11-02T10:32:10;100974.38;;;14.94;78.10
57048;BME280;42934;54.294;18.598;2022-11-02T10:34:40;100969.81;;;14.98;78.14
57048;BME280;42934;54.294;18.598;2022-11-02T10:37:14;100971.44;;;15.01;78.19
57048;BME280;42934;54.294;18.598;2022-11-02T10:39:58;100978.97;;;15.10;78.32
57048;BME280;42934;54.294;18.598;2022-11-02T10:42:49;100974.88;;;15.21;77.38
57048;BME280;42934;54.294;18.598;2022-11-02T10:45:36;100942.16;;;15.24;77.49
57048;BME280;42934;54.294;18.598;2022-11-02T10:48:15;100967.53;;;15.64;77.11
57048;BME280;42934;54.294;18.598;2022-11-02T10:50:54;100966.22;;;15.92;76.08
57048;BME280;42934;54.294;18.598;2022-11-02T10:53:34;100966.50;;;16.38;75.10
57048;BME280;42934;54.294;18.598;2022-11-02T10:56:14;100962.75;;;16.77;74.55
57048;BME280;42934;54.294;18.598;2022-11-02T10:58:50;100957.75;;;17.20;73.30
57048;BME280;42934;54.294;18.598;2022-11-02T11:01:21;100949.97;;;17.33;72.65
57048;BME280;42934;54.294;18.598;2022-11-02T11:03:56;100958.09;;;17.45;72.02
57048;BME280;42934;54.294;18.598;2022-11-02T11:06:28;100954.31;;;17.49;71.23
57048;BME280;42934;54.294;18.598;2022-11-02T11:09:00;100943.72;;;17.34;70.68
57048;BME280;42934;54.294;18.598;2022-11-02T11:11:33;100951.91;;;17.29;70.46
57048;BME280;42934;54.294;18.598;2022-11-02T11:14:06;100954.06;;;17.22;70.82
57048;BME280;42934;54.294;18.598;2022-11-02T11:16:57;100958.59;;;17.20;70.98
57048;BME280;42934;54.294;18.598;2022-11-02T11:19:49;100966.50;;;17.22;70.22
57048;BME280;42934;54.294;18.598;2022-11-02T11:22:27;100964.59;;;17.08;70.01
57048;BME280;42934;54.294;18.598;2022-11-02T11:25:20;100959.03;;;17.13;70.25
57048;BME280;42934;54.294;18.598;2022-11-02T11:27:55;100967.34;;;17.07;70.36
57048;BME280;42934;54.294;18.598;2022-11-02T11:30:28;100962.44;;;16.99;70.32
57048;BME280;42934;54.294;18.598;2022-11-02T11:33:19;100973.38;;;16.77;70.71
57048;BME280;42934;54.294;18.598;2022-11-02T11:35:50;100977.84;;;16.42;69.68
57048;BME280;42934;54.294;18.598;2022-11-02T11:38:21;100971.75;;;16.22;70.83
57048;BME280;42934;54.294;18.598;2022-11-02T11:40:54;100971.50;;;15.92;71.10
57048;BME280;42934;54.294;18.598;2022-11-02T11:43:27;100974.00;;;15.59;71.31
57048;BME280;42934;54.294;18.598;2022-11-02T11:46:00;100974.72;;;15.43;71.73
57048;BME280;42934;54.294;18.598;2022-11-02T11:48:38;100967.00;;;15.20;72.21
57048;BME280;42934;54.294;18.598;2022-11-02T11:51:28;100949.91;;;15.08;72.63
57048;BME280;42934;54.294;18.598;2022-11-02T11:54:13;100945.78;;;15.03;72.98
57048;BME280;42934;54.294;18.598;2022-11-02T11:56:45;100943.00;;;14.87;73.01
57048;BME280;42934;54.294;18.598;2022-11-02T11:59:24;100946.19;;;14.74;73.38
57048;BME280;42934;54.294;18.598;2022-11-02T12:01:57;100936.53;;;14.54;73.54
57048;BME280;42934;54.294;18.598;2022-11-02T12:04:33;100946.94;;;14.37;73.97
57048;BME280;42934;54.294;18.598;2022-11-02T12:07:27;100943.84;;;14.27;74.05
57048;BME280;42934;54.294;18.598;2022-11-02T12:10:08;100941.75;;;14.15;74.70
57048;BME280;42934;54.294;18.598;2022-11-02T12:12:50;100930.41;;;14.12;74.65
57048;BME280;42934;54.294;18.598;2022-11-02T12:15:33;100928.41;;;14.18;74.80
57048;BME280;42934;54.294;18.598;2022-11-02T12:18:18;100931.53;;;14.47;74.52
57048;BME280;42934;54.294;18.598;2022-11-02T12:21:04;100925.34;;;14.68;74.21
57048;BME280;42934;54.294;18.598;2022-11-02T12:24:00;100934.78;;;14.93;73.31
57048;BME280;42934;54.294;18.598;2022-11-02T12:26:40;100926.66;;;14.97;73.26
57048;BME280;42934;54.294;18.598;2022-11-02T12:29:40;100920.91;;;15.07;72.82
57048;BME280;42934;54.294;18.598;2022-11-02T12:32:24;100920.41;;;15.17;72.35
57048;BME280;42934;54.294;18.598;2022-11-02T12:35:08;100918.69;;;15.16;72.18
57048;BME280;42934;54.294;18.598;2022-11-02T12:38:12;100922.19;;;15.17;72.28
57048;BME280;42934;54.294;18.598;2022-11-02T12:40:53;100922.84;;;15.22;72.50
57048;BME280;42934;54.294;18.598;2022-11-02T12:43:38;100924.41;;;15.07;72.30
57048;BME280;42934;54.294;18.598;2022-11-02T12:46:20;100935.19;;;14.84;72.80
57048;BME280;42934;54.294;18.598;2022-11-02T12:49:03;100929.97;;;14.63;73.12
57048;BME280;42934;54.294;18.598;2022-11-02T12:51:41;100937.03;;;14.42;73.49
57048;BME280;42934;54.294;18.598;2022-11-02T12:54:17;100930.69;;;14.26;73.37
57048;BME280;42934;54.294;18.598;2022-11-02T12:56:49;100926.41;;;14.23;74.29
57048;BME280;42934;54.294;18.598;2022-11-02T12:59:23;100927.47;;;14.19;74.21
57048;BME280;42934;54.294;18.598;2022-11-02T13:01:56;100911.75;;;14.16;74.39
57048;BME280;42934;54.294;18.598;2022-11-02T13:04:30;100912.06;;;14.08;74.54
57048;BME280;42934;54.294;18.598;2022-11-02T13:07:11;100911.03;;;14.13;74.71
57048;BME280;42934;54.294;18.598;2022-11-02T13:09:48;100906.78;;;14.08;74.20
57048;BME280;42934;54.294;18.598;2022-11-02T13:12:23;100906.94;;;14.05;74.37
57048;BME280;42934;54.294;18.598;2022-11-02T13:14:55;100899.09;;;14.04;74.41